createdAt,value
2023-01-19T00:00:00.325Z,989.85
2023-01-19T00:01:00.290Z,989.87
2023-01-19T00:02:00.283Z,989.88
2023-01-19T00:03:00.294Z,989.89
2023-01-19T00:04:00.415Z,989.90
2023-01-19T00:05:00.254Z,989.91
2023-01-19T00:06:00.250Z,989.92
2023-01-19T00:07:00.238Z,989.93
2023-01-19T00:08:00.621Z,989.93
2023-01-19T00:09:00.212Z,989.93
2023-01-19T00:10:00.342Z,989.93
2023-01-19T00:11:00.197Z,989.95
2023-01-19T00:12:00.175Z,989.97
2023-01-19T00:13:00.671Z,989.98
2023-01-19T00:14:00.148Z,989.98
2023-01-19T00:15:00.154Z,990.00
2023-01-19T00:16:00.289Z,990.00
2023-01-19T00:17:00.117Z,990.00
2023-01-19T00:18:00.123Z,990.01
2023-01-19T00:19:00.112Z,990.01
2023-01-19T00:20:00.118Z,990.02
2023-01-19T00:21:00.127Z,990.02
2023-01-19T00:22:00.130Z,990.01
2023-01-19T00:23:00.518Z,990.01
2023-01-19T00:24:00.061Z,990.00
2023-01-19T00:25:00.042Z,990.00
2023-01-19T00:26:01.301Z,989.99
2023-01-19T00:27:00.030Z,989.98
2023-01-19T00:28:01.647Z,989.98
2023-01-19T00:28:59.996Z,989.98
2023-01-19T00:29:59.993Z,989.98
2023-01-19T00:30:59.994Z,989.97
2023-01-19T00:31:59.955Z,989.97
2023-01-19T00:33:00.467Z,989.99
2023-01-19T00:34:00.235Z,990.01
2023-01-19T00:34:59.938Z,990.03
2023-01-19T00:35:59.937Z,990.04
2023-01-19T00:36:59.909Z,990.05
2023-01-19T00:37:59.893Z,990.04
2023-01-19T00:38:59.891Z,990.04
2023-01-19T00:40:00.013Z,990.04
2023-01-19T00:40:59.873Z,990.04
2023-01-19T00:41:59.879Z,990.05
2023-01-19T00:43:00.159Z,990.07
2023-01-19T00:43:59.837Z,990.07
2023-01-19T00:44:59.868Z,990.09
2023-01-19T00:45:59.998Z,990.08
2023-01-19T00:46:59.808Z,990.09
2023-01-19T00:47:59.789Z,990.10
2023-01-19T00:48:59.804Z,990.09
2023-01-19T00:49:59.787Z,990.08
2023-01-19T00:50:59.792Z,990.07
2023-01-19T00:51:59.901Z,990.06
2023-01-19T00:53:00.149Z,990.05
2023-01-19T00:53:59.727Z,990.04
2023-01-19T00:54:59.731Z,990.04
2023-01-19T00:55:59.711Z,990.04
2023-01-19T00:56:59.703Z,990.02
2023-01-19T00:57:59.842Z,990.02
2023-01-19T00:58:59.708Z,990.02
2023-01-19T00:59:59.671Z,990.03
2023-01-19T01:00:59.758Z,990.05
2023-01-19T01:01:59.889Z,990.06
2023-01-19T01:03:00.089Z,990.06
2023-01-19T01:03:59.743Z,990.06
2023-01-19T01:04:59.627Z,990.06
2023-01-19T01:05:59.604Z,990.05
2023-01-19T01:06:59.596Z,990.06
2023-01-19T01:07:59.605Z,990.07
2023-01-19T01:08:59.585Z,990.07
2023-01-19T01:09:59.703Z,990.08
2023-01-19T01:10:59.555Z,990.07
2023-01-19T01:11:59.566Z,990.08
2023-01-19T01:12:59.527Z,990.07
2023-01-19T01:13:59.526Z,990.07
2023-01-19T01:14:59.508Z,990.07
2023-01-19T01:15:59.648Z,990.07
2023-01-19T01:16:59.504Z,990.08
2023-01-19T01:17:59.487Z,990.08
2023-01-19T01:18:59.481Z,990.08
2023-01-19T01:19:59.457Z,990.08
2023-01-19T01:20:59.449Z,990.08
2023-01-19T01:21:59.593Z,990.07
2023-01-19T01:22:59.901Z,990.07
2023-01-19T01:23:59.408Z,990.08
2023-01-19T01:24:59.425Z,990.07
2023-01-19T01:25:59.404Z,990.06
2023-01-19T01:26:59.398Z,990.06
2023-01-19T01:27:59.515Z,990.06
2023-01-19T01:28:59.435Z,990.06
2023-01-19T01:29:59.363Z,990.07
2023-01-19T01:30:59.340Z,990.07
2023-01-19T01:31:59.425Z,990.07
2023-01-19T01:32:59.635Z,990.07
2023-01-19T01:33:59.452Z,990.07
2023-01-19T01:34:59.302Z,990.06
2023-01-19T01:35:59.287Z,990.06
2023-01-19T01:36:59.280Z,990.05
2023-01-19T01:37:59.263Z,990.05
2023-01-19T01:38:59.257Z,990.04
2023-01-19T01:39:59.490Z,990.04
2023-01-19T01:40:59.229Z,990.04
2023-01-19T01:41:59.226Z,990.05
2023-01-19T01:42:59.727Z,990.04
2023-01-19T01:43:59.203Z,990.05
2023-01-19T01:44:59.198Z,990.06
2023-01-19T01:45:59.346Z,990.07
2023-01-19T01:46:59.170Z,990.09
2023-01-19T01:47:59.158Z,990.09
2023-01-19T01:48:59.151Z,990.08
2023-01-19T01:49:59.135Z,990.07
2023-01-19T01:50:59.139Z,990.07
2023-01-19T01:51:59.255Z,990.08
2023-01-19T01:53:07.627Z,990.08
2023-01-19T01:53:59.106Z,990.07
2023-01-19T01:54:59.090Z,990.07
2023-01-19T01:55:59.074Z,990.07
2023-01-19T01:56:59.078Z,990.06
2023-01-19T01:57:59.213Z,990.06
2023-01-19T01:58:59.079Z,990.06
2023-01-19T01:59:59.049Z,990.06
2023-01-19T02:00:59.220Z,990.04
2023-01-19T02:01:59.094Z,990.04
2023-01-19T02:02:59.448Z,990.03
2023-01-19T02:03:59.138Z,990.03
2023-01-19T02:04:58.997Z,990.04
2023-01-19T02:05:58.967Z,990.03
2023-01-19T02:06:58.969Z,990.03
2023-01-19T02:07:58.951Z,990.02
2023-01-19T02:08:58.939Z,990.00
2023-01-19T02:09:59.053Z,990.00
2023-01-19T02:10:58.946Z,990.00
2023-01-19T02:11:58.912Z,990.01
2023-01-19T02:12:59.297Z,990.02
2023-01-19T02:13:58.877Z,990.01
2023-01-19T02:14:58.874Z,990.02
2023-01-19T02:15:59.028Z,990.04
2023-01-19T02:16:58.886Z,990.06
2023-01-19T02:17:58.840Z,990.07
2023-01-19T02:18:58.829Z,990.07
2023-01-19T02:19:58.820Z,990.05
2023-01-19T02:20:58.821Z,990.06
2023-01-19T02:21:58.963Z,990.05
2023-01-19T02:22:59.100Z,990.04
2023-01-19T02:23:58.775Z,990.04
2023-01-19T02:24:58.774Z,990.03
2023-01-19T02:25:58.753Z,990.02
2023-01-19T02:26:58.758Z,990.01
2023-01-19T02:27:58.891Z,990.02
2023-01-19T02:28:58.732Z,990.02
2023-01-19T02:29:58.718Z,990.02
2023-01-19T02:30:58.802Z,990.02
2023-01-19T02:31:58.691Z,990.01
2023-01-19T02:32:59.066Z,990.02
2023-01-19T02:33:58.834Z,990.01
2023-01-19T02:34:58.661Z,990.02
2023-01-19T02:35:58.662Z,990.03
2023-01-19T02:36:58.643Z,990.03
2023-01-19T02:37:58.630Z,990.04
2023-01-19T02:38:58.629Z,990.02
2023-01-19T02:39:58.920Z,990.02
2023-01-19T02:40:58.603Z,990.02
2023-01-19T02:41:58.581Z,990.02
2023-01-19T02:42:59.134Z,990.01
2023-01-19T02:43:58.589Z,990.02
2023-01-19T02:44:58.577Z,990.02
2023-01-19T02:45:58.766Z,990.02
2023-01-19T02:46:58.542Z,990.03
2023-01-19T02:47:58.519Z,990.03
2023-01-19T02:48:58.527Z,990.03
2023-01-19T02:49:58.505Z,990.04
2023-01-19T02:50:58.506Z,990.05
2023-01-19T02:51:58.655Z,990.03
2023-01-19T02:52:58.939Z,990.01
2023-01-19T02:53:58.466Z,989.98
2023-01-19T02:54:58.487Z,989.99
2023-01-19T02:55:58.440Z,989.99
2023-01-19T02:56:58.436Z,989.99
2023-01-19T02:57:58.585Z,990.01
2023-01-19T02:58:58.430Z,990.02
2023-01-19T02:59:58.406Z,990.02
2023-01-19T03:00:58.418Z,990.03
2023-01-19T03:01:58.420Z,990.04
2023-01-19T03:02:59.004Z,990.03
2023-01-19T03:03:58.526Z,990.04
2023-01-19T03:04:58.336Z,990.03
2023-01-19T03:05:58.338Z,990.03
2023-01-19T03:06:58.321Z,990.03
2023-01-19T03:07:58.323Z,990.03
2023-01-19T03:08:58.307Z,990.03
2023-01-19T03:09:58.427Z,990.03
2023-01-19T03:10:58.296Z,990.02
2023-01-19T03:11:58.271Z,990.02
2023-01-19T03:12:58.883Z,990.02
2023-01-19T03:13:59.902Z,990.01
2023-01-19T03:14:58.242Z,990.01
2023-01-19T03:15:58.514Z,990.02
2023-01-19T03:16:58.318Z,990.04
2023-01-19T03:17:58.228Z,990.04
2023-01-19T03:18:58.198Z,990.03
2023-01-19T03:19:58.220Z,990.03
2023-01-19T03:20:58.174Z,990.02
2023-01-19T03:21:58.319Z,990.00
2023-01-19T03:22:58.728Z,989.98
2023-01-19T03:23:58.159Z,989.97
2023-01-19T03:24:58.144Z,989.95
2023-01-19T03:25:58.141Z,989.95
2023-01-19T03:26:58.111Z,989.93
2023-01-19T03:27:58.253Z,989.92
2023-01-19T03:28:58.091Z,989.95
2023-01-19T03:29:58.259Z,989.95
2023-01-19T03:30:58.092Z,989.94
2023-01-19T03:31:58.065Z,989.93
2023-01-19T03:32:58.544Z,989.92
2023-01-19T03:33:58.192Z,989.92
2023-01-19T03:34:58.022Z,989.93
2023-01-19T03:35:58.023Z,989.90
2023-01-19T03:36:58.161Z,989.90
2023-01-19T03:37:58.000Z,989.90
2023-01-19T03:38:57.989Z,989.90
2023-01-19T03:39:58.113Z,989.89
2023-01-19T03:40:57.966Z,989.89
2023-01-19T03:41:57.964Z,989.89
2023-01-19T03:42:58.631Z,989.89
2023-01-19T03:43:57.942Z,989.89
2023-01-19T03:44:57.935Z,989.89
2023-01-19T03:45:58.264Z,989.91
2023-01-19T03:46:57.907Z,989.92
2023-01-19T03:47:57.903Z,989.92
2023-01-19T03:48:57.877Z,989.93
2023-01-19T03:49:57.873Z,989.92
2023-01-19T03:50:57.853Z,989.91
2023-01-19T03:51:57.982Z,989.94
2023-01-19T03:52:58.384Z,989.96
2023-01-19T03:53:57.857Z,989.96
2023-01-19T03:54:57.817Z,989.98
2023-01-19T03:55:57.806Z,989.98
2023-01-19T03:56:57.801Z,989.97
2023-01-19T03:57:57.929Z,989.98
2023-01-19T03:58:57.780Z,990.00
2023-01-19T03:59:57.776Z,990.01
2023-01-19T04:00:57.821Z,990.00
2023-01-19T04:01:57.855Z,989.98
2023-01-19T04:02:57.914Z,989.98
2023-01-19T04:03:57.860Z,989.98
2023-01-19T04:04:57.711Z,989.98
2023-01-19T04:05:57.704Z,989.97
2023-01-19T04:06:57.705Z,989.98
2023-01-19T04:07:57.680Z,989.96
2023-01-19T04:08:57.676Z,989.95
2023-01-19T04:09:57.700Z,989.94
2023-01-19T04:10:57.656Z,989.93
2023-01-19T04:11:57.640Z,989.92
2023-01-19T04:12:57.796Z,989.90
2023-01-19T04:13:57.623Z,989.88
2023-01-19T04:14:57.601Z,989.89
2023-01-19T04:15:57.818Z,989.88
2023-01-19T04:16:57.584Z,989.89
2023-01-19T04:17:57.591Z,989.90
2023-01-19T04:18:57.561Z,989.88
2023-01-19T04:19:57.556Z,989.91
2023-01-19T04:20:57.561Z,989.92
2023-01-19T04:21:57.661Z,989.93
2023-01-19T04:22:57.531Z,989.96
2023-01-19T04:23:57.516Z,989.96
2023-01-19T04:24:57.509Z,989.96
2023-01-19T04:25:57.505Z,989.96
2023-01-19T04:26:57.484Z,989.95
2023-01-19T04:27:57.643Z,989.94
2023-01-19T04:28:57.453Z,989.95
2023-01-19T04:29:57.457Z,989.94
2023-01-19T04:30:57.460Z,989.93
2023-01-19T04:31:57.427Z,989.94
2023-01-19T04:32:57.498Z,989.96
2023-01-19T04:33:57.561Z,989.95
2023-01-19T04:34:57.412Z,989.96
2023-01-19T04:35:57.391Z,989.95
2023-01-19T04:36:57.376Z,989.96
2023-01-19T04:37:57.371Z,989.97
2023-01-19T04:38:57.354Z,989.95
2023-01-19T04:39:57.384Z,989.95
2023-01-19T04:40:57.331Z,989.95
2023-01-19T04:41:57.346Z,989.95
2023-01-19T04:42:57.306Z,989.96
2023-01-19T04:43:57.314Z,989.97
2023-01-19T04:44:57.287Z,989.98
2023-01-19T04:45:57.457Z,989.96
2023-01-19T04:46:57.273Z,989.95
2023-01-19T04:47:57.267Z,989.94
2023-01-19T04:48:57.263Z,989.93
2023-01-19T04:49:57.238Z,989.92
2023-01-19T04:50:57.235Z,989.92
2023-01-19T04:51:57.544Z,989.91
2023-01-19T04:52:57.231Z,989.89
2023-01-19T04:53:57.226Z,989.89
2023-01-19T04:54:57.231Z,989.88
2023-01-19T04:55:57.238Z,989.90
2023-01-19T04:56:57.170Z,989.88
2023-01-19T04:57:57.289Z,989.90
2023-01-19T04:58:57.154Z,989.93
2023-01-19T04:59:57.130Z,989.95
2023-01-19T05:00:57.152Z,989.95
2023-01-19T05:01:57.203Z,989.96
2023-01-19T05:02:57.140Z,989.97
2023-01-19T05:03:57.238Z,989.95
2023-01-19T05:04:57.077Z,989.93
2023-01-19T05:05:57.065Z,989.93
2023-01-19T05:06:58.921Z,989.91
2023-01-19T05:07:57.045Z,989.90
2023-01-19T05:08:57.037Z,989.89
2023-01-19T05:09:57.188Z,989.90
2023-01-19T05:10:57.019Z,989.91
2023-01-19T05:11:57.016Z,989.90
2023-01-19T05:12:56.992Z,989.93
2023-01-19T05:13:56.989Z,989.97
2023-01-19T05:14:56.979Z,989.96
2023-01-19T05:15:57.141Z,989.95
2023-01-19T05:16:56.952Z,989.91
2023-01-19T05:17:56.951Z,989.91
2023-01-19T05:18:56.936Z,989.89
2023-01-19T05:19:56.923Z,989.92
2023-01-19T05:20:56.911Z,989.92
2023-01-19T05:21:57.052Z,989.92
2023-01-19T05:22:56.884Z,989.96
2023-01-19T05:23:56.876Z,989.98
2023-01-19T05:24:56.867Z,989.96
2023-01-19T05:25:56.869Z,989.97
2023-01-19T05:28:39.206Z,989.97
2023-01-19T05:29:40.177Z,989.96
2023-01-19T05:30:40.230Z,989.95
2023-01-19T05:31:40.181Z,990.00
2023-01-19T05:32:40.160Z,989.99
2023-01-19T05:33:40.274Z,989.96
2023-01-19T05:34:40.131Z,989.96
2023-01-19T05:35:40.126Z,989.94
2023-01-19T05:36:40.111Z,989.97
2023-01-19T05:37:40.090Z,989.96
2023-01-19T05:38:40.084Z,989.94
2023-01-19T05:39:40.277Z,989.96
2023-01-19T05:40:40.075Z,989.93
2023-01-19T05:41:40.077Z,989.92
2023-01-19T05:42:40.053Z,989.94
2023-01-19T05:43:40.034Z,989.96
2023-01-19T05:44:40.028Z,989.92
2023-01-19T05:45:40.143Z,989.89
2023-01-19T05:46:40.056Z,989.86
2023-01-19T05:47:39.992Z,989.87
2023-01-19T05:48:39.991Z,989.86
2023-01-19T05:49:39.973Z,989.87
2023-01-19T05:50:39.992Z,989.89
2023-01-19T05:51:40.016Z,989.89
2023-01-19T05:52:40.201Z,989.88
2023-01-19T05:53:39.956Z,989.89
2023-01-19T05:54:40.667Z,989.87
2023-01-19T05:55:39.918Z,989.88
2023-01-19T05:56:39.900Z,989.89
2023-01-19T05:57:40.172Z,989.90
2023-01-19T05:58:39.893Z,989.89
2023-01-19T05:59:40.038Z,989.89
2023-01-19T06:00:39.881Z,989.88
2023-01-19T06:01:40.458Z,989.89
2023-01-19T06:02:39.843Z,989.88
2023-01-19T06:03:39.951Z,989.88
2023-01-19T06:04:39.828Z,989.90
2023-01-19T06:05:39.867Z,989.89
2023-01-19T06:06:39.829Z,989.91
2023-01-19T06:07:39.886Z,989.92
2023-01-19T06:08:39.785Z,989.92
2023-01-19T06:09:39.937Z,989.92
2023-01-19T06:10:39.760Z,989.92
2023-01-19T06:11:39.737Z,989.90
2023-01-19T06:12:39.756Z,989.89
2023-01-19T06:13:41.275Z,989.88
2023-01-19T06:14:39.743Z,989.87
2023-01-19T06:15:39.835Z,989.87
2023-01-19T06:16:39.719Z,989.86
2023-01-19T06:17:39.708Z,989.88
2023-01-19T06:18:39.674Z,989.87
2023-01-19T06:19:39.664Z,989.88
2023-01-19T06:20:39.660Z,989.89
2023-01-19T06:21:39.716Z,989.88
2023-01-19T06:22:39.651Z,989.88
2023-01-19T06:23:39.623Z,989.90
2023-01-19T06:24:39.623Z,989.92
2023-01-19T06:25:39.598Z,989.93
2023-01-19T06:26:46.524Z,989.95
2023-01-19T06:27:39.574Z,989.95
2023-01-19T06:28:39.666Z,989.95
2023-01-19T06:29:39.560Z,989.98
2023-01-19T06:30:39.617Z,989.99
2023-01-19T06:31:39.613Z,990.00
2023-01-19T06:32:39.669Z,990.02
2023-01-19T06:33:39.516Z,989.99
2023-01-19T06:34:39.511Z,989.99
2023-01-19T06:35:39.494Z,989.98
2023-01-19T06:36:39.500Z,990.02
2023-01-19T06:37:39.481Z,989.98
2023-01-19T06:38:39.601Z,990.00
2023-01-19T06:39:39.448Z,989.99
2023-01-19T06:40:39.469Z,989.99
2023-01-19T06:41:39.435Z,990.02
2023-01-19T06:42:39.430Z,990.03
2023-01-19T06:43:39.418Z,990.06
2023-01-19T06:44:39.593Z,990.07
2023-01-19T06:45:39.419Z,990.07
2023-01-19T06:46:39.390Z,990.07
2023-01-19T06:47:39.386Z,990.07
2023-01-19T06:48:39.360Z,990.12
2023-01-19T06:49:39.350Z,990.12
2023-01-19T06:50:39.480Z,990.13
2023-01-19T06:51:39.335Z,990.16
2023-01-19T06:52:39.322Z,990.19
2023-01-19T06:53:39.321Z,990.19
2023-01-19T06:54:39.302Z,990.20
2023-01-19T06:55:39.297Z,990.25
2023-01-19T06:56:39.443Z,990.27
2023-01-19T06:57:39.289Z,990.31
2023-01-19T06:58:39.266Z,990.30
2023-01-19T06:59:39.287Z,990.29
2023-01-19T07:00:39.244Z,990.32
2023-01-19T07:01:39.359Z,990.29
2023-01-19T07:02:39.615Z,990.30
2023-01-19T07:03:39.211Z,990.29
2023-01-19T07:04:39.197Z,990.23
2023-01-19T07:05:39.210Z,990.29
2023-01-19T07:06:39.202Z,990.32
2023-01-19T07:07:39.172Z,990.28
2023-01-19T07:08:39.469Z,990.28
2023-01-19T07:09:39.144Z,990.29
2023-01-19T07:11:25.200Z,990.26
2023-01-19T07:11:39.143Z,990.26
2023-01-19T07:12:39.116Z,990.26
2023-01-19T07:13:39.135Z,990.28
2023-01-19T07:14:39.246Z,990.30
2023-01-19T07:15:39.090Z,990.33
2023-01-19T07:16:39.194Z,990.38
2023-01-19T07:17:39.065Z,990.38
2023-01-19T07:18:39.048Z,990.38
2023-01-19T07:19:39.044Z,990.37
2023-01-19T07:20:39.216Z,990.39
2023-01-19T07:21:39.043Z,990.37
2023-01-19T07:22:39.017Z,990.36
2023-01-19T07:23:39.011Z,990.38
2023-01-19T07:24:38.986Z,990.39
2023-01-19T07:25:38.987Z,990.42
2023-01-19T07:26:46.084Z,990.42
2023-01-19T07:27:38.979Z,990.45
2023-01-19T07:28:38.951Z,990.44
2023-01-19T07:29:38.947Z,990.45
2023-01-19T07:30:38.973Z,990.46
2023-01-19T07:31:39.034Z,990.48
2023-01-19T07:32:39.161Z,990.52
2023-01-19T07:33:38.908Z,990.52
2023-01-19T07:34:38.895Z,990.53
2023-01-19T07:35:38.882Z,990.50
2023-01-19T07:36:38.947Z,990.50
2023-01-19T07:37:38.864Z,990.55
2023-01-19T07:38:39.113Z,990.49
2023-01-19T07:39:38.855Z,990.51
2023-01-19T07:40:38.846Z,990.52
2023-01-19T07:41:38.818Z,990.50
2023-01-19T07:42:38.810Z,990.52
2023-01-19T07:43:38.812Z,990.51
2023-01-19T07:44:38.990Z,990.48
2023-01-19T07:45:39.005Z,990.51
2023-01-19T07:46:38.767Z,990.51
2023-01-19T07:47:38.779Z,990.53
2023-01-19T07:48:38.701Z,990.52
2023-01-19T07:49:38.750Z,990.55
2023-01-19T07:50:38.909Z,990.56
2023-01-19T07:51:38.717Z,990.56
2023-01-19T07:52:38.712Z,990.55
2023-01-19T07:53:38.694Z,990.58
2023-01-19T07:54:38.674Z,990.61
2023-01-19T07:55:38.678Z,990.60
2023-01-19T07:56:38.924Z,990.62
2023-01-19T07:57:38.600Z,990.62
2023-01-19T07:58:38.586Z,990.64
2023-01-19T07:59:38.583Z,990.64
2023-01-19T08:00:38.621Z,990.62
2023-01-19T08:01:38.679Z,990.67
2023-01-19T08:02:39.036Z,990.69
2023-01-19T08:03:38.600Z,990.68
2023-01-19T08:04:38.624Z,990.68
2023-01-19T08:05:38.598Z,990.69
2023-01-19T08:06:38.557Z,990.70
2023-01-19T08:07:38.555Z,990.72
2023-01-19T08:08:38.711Z,990.72
2023-01-19T08:09:38.476Z,990.72
2023-01-19T08:10:38.516Z,990.69
2023-01-19T08:11:38.800Z,990.68
2023-01-19T08:12:38.541Z,990.71
2023-01-19T08:13:38.451Z,990.68
2023-01-19T08:14:38.560Z,990.67
2023-01-19T08:15:38.455Z,990.69
2023-01-19T08:16:38.404Z,990.66
2023-01-19T08:17:38.448Z,990.67
2023-01-19T08:18:38.432Z,990.65
2023-01-19T08:19:41.319Z,990.69
2023-01-19T08:20:38.623Z,990.72
2023-01-19T08:21:38.410Z,990.75
2023-01-19T08:22:38.398Z,990.74
2023-01-19T08:23:38.359Z,990.75
2023-01-19T08:24:38.396Z,990.75
2023-01-19T08:25:38.378Z,990.77
2023-01-19T08:27:49.284Z,990.80
2023-01-19T08:28:50.132Z,990.78
2023-01-19T08:29:50.120Z,990.83
2023-01-19T08:30:50.162Z,990.73
2023-01-19T08:31:50.236Z,990.72
2023-01-19T08:32:50.229Z,990.72
2023-01-19T08:33:50.076Z,990.72
2023-01-19T08:34:50.063Z,990.74
2023-01-19T08:35:50.062Z,990.77
2023-01-19T08:36:50.070Z,990.80
2023-01-19T08:37:50.032Z,990.79
2023-01-19T08:38:50.172Z,990.84
2023-01-19T08:39:50.029Z,990.82
2023-01-19T08:40:50.006Z,990.84
2023-01-19T08:41:50.036Z,990.81
2023-01-19T08:42:49.978Z,990.84
2023-01-19T08:43:49.989Z,990.83
2023-01-19T08:44:58.171Z,990.82
2023-01-19T08:45:50.024Z,990.83
2023-01-19T08:46:49.953Z,990.78
2023-01-19T08:47:50.005Z,990.77
2023-01-19T08:48:49.922Z,990.81
2023-01-19T08:49:49.915Z,990.83
2023-01-19T08:50:50.006Z,990.83
2023-01-19T08:51:49.948Z,990.81
2023-01-19T08:52:49.934Z,990.81
2023-01-19T08:53:49.927Z,990.82
2023-01-19T08:54:49.951Z,990.80
2023-01-19T08:55:49.895Z,990.80
2023-01-19T08:56:49.999Z,990.82
2023-01-19T08:57:49.833Z,990.86
2023-01-19T08:59:03.448Z,990.84
2023-01-19T08:59:49.835Z,990.84
2023-01-19T09:00:49.821Z,990.82
2023-01-19T09:01:49.963Z,990.80
2023-01-19T09:02:50.111Z,990.81
2023-01-19T09:03:49.870Z,990.82
2023-01-19T09:04:49.814Z,990.78
2023-01-19T09:05:49.759Z,990.84
2023-01-19T09:06:49.734Z,990.83
2023-01-19T09:07:49.725Z,990.91
2023-01-19T09:08:49.854Z,990.87
2023-01-19T09:09:49.710Z,990.86
2023-01-19T09:10:49.712Z,990.86
2023-01-19T09:11:49.694Z,990.87
2023-01-19T09:12:49.685Z,990.88
2023-01-19T09:13:49.665Z,990.90
2023-01-19T09:14:49.799Z,990.90
2023-01-19T09:15:49.720Z,990.90
2023-01-19T09:16:49.650Z,990.91
2023-01-19T09:17:49.616Z,990.92
2023-01-19T09:18:49.616Z,990.93
2023-01-19T09:19:49.602Z,990.92
2023-01-19T09:20:49.721Z,990.91
2023-01-19T09:21:49.587Z,990.94
2023-01-19T09:22:49.583Z,990.95
2023-01-19T09:23:49.580Z,990.94
2023-01-19T09:24:49.541Z,990.94
2023-01-19T09:25:49.557Z,991.03
2023-01-19T09:26:56.542Z,990.98
2023-01-19T09:27:49.528Z,991.02
2023-01-19T09:28:49.514Z,991.02
2023-01-19T09:29:49.506Z,990.98
2023-01-19T09:30:49.534Z,991.01
2023-01-19T09:31:49.523Z,990.95
2023-01-19T09:32:49.637Z,991.01
2023-01-19T09:33:50.021Z,991.02
2023-01-19T09:34:49.443Z,991.05
2023-01-19T09:35:49.446Z,991.02
2023-01-19T09:36:49.434Z,991.00
2023-01-19T09:37:49.428Z,990.98
2023-01-19T09:38:49.528Z,991.00
2023-01-19T09:39:49.419Z,991.00
2023-01-19T09:40:49.389Z,990.97
2023-01-19T09:41:49.374Z,990.95
2023-01-19T09:42:49.362Z,990.93
2023-01-19T09:43:49.374Z,990.93
2023-01-19T09:44:49.482Z,990.94
2023-01-19T09:45:49.338Z,990.94
2023-01-19T09:46:49.360Z,990.94
2023-01-19T09:47:49.529Z,990.92
2023-01-19T09:48:49.299Z,990.90
2023-01-19T09:49:49.295Z,990.94
2023-01-19T09:50:49.411Z,990.94
2023-01-19T09:51:49.283Z,990.95
2023-01-19T09:52:49.504Z,990.96
2023-01-19T09:53:49.259Z,990.98
2023-01-19T09:54:49.243Z,990.97
2023-01-19T09:55:49.235Z,990.97
2023-01-19T09:56:52.364Z,990.96
2023-01-19T09:57:49.213Z,990.96
2023-01-19T09:58:49.203Z,990.95
2023-01-19T09:59:49.188Z,990.97
2023-01-19T10:00:49.285Z,990.93
2023-01-19T10:01:49.191Z,990.93
2023-01-19T10:02:49.341Z,990.94
2023-01-19T10:03:49.148Z,990.92
2023-01-19T10:04:49.195Z,990.93
2023-01-19T10:05:49.131Z,990.94
2023-01-19T10:06:49.139Z,990.96
2023-01-19T10:07:49.145Z,990.99
2023-01-19T10:08:49.349Z,990.96
2023-01-19T10:09:49.174Z,990.95
2023-01-19T10:10:49.081Z,990.95
2023-01-19T10:11:53.094Z,990.98
2023-01-19T10:12:49.189Z,990.99
2023-01-19T10:13:49.098Z,990.95
2023-01-19T10:14:49.255Z,990.97
2023-01-19T10:15:49.063Z,990.92
2023-01-19T10:16:49.020Z,990.93
2023-01-19T10:17:49.003Z,990.90
2023-01-19T10:18:49.000Z,990.94
2023-01-19T10:19:49.132Z,990.91
2023-01-19T10:20:49.207Z,990.89
2023-01-19T10:21:48.968Z,990.91
2023-01-19T10:22:48.947Z,990.88
2023-01-19T10:23:48.950Z,990.88
2023-01-19T10:24:48.948Z,990.87
2023-01-19T10:25:48.989Z,990.88
2023-01-19T10:26:56.054Z,990.86
2023-01-19T10:27:48.919Z,990.86
2023-01-19T10:28:48.896Z,990.86
2023-01-19T10:29:48.915Z,990.88
2023-01-19T10:30:48.866Z,990.89
2023-01-19T10:31:48.920Z,990.88
2023-01-19T10:32:49.019Z,990.90
2023-01-19T10:33:48.871Z,990.94
2023-01-19T10:34:48.825Z,990.92
2023-01-19T10:35:48.946Z,990.93
2023-01-19T10:36:48.837Z,990.92
2023-01-19T10:37:48.803Z,990.93
2023-01-19T10:38:49.030Z,990.94
2023-01-19T10:39:48.800Z,990.95
2023-01-19T10:40:48.798Z,990.95
2023-01-19T10:41:48.770Z,990.94
2023-01-19T10:42:48.796Z,990.94
2023-01-19T10:43:48.764Z,990.95
2023-01-19T10:44:48.947Z,990.94
2023-01-19T10:45:48.789Z,990.95
2023-01-19T10:46:48.813Z,990.97
2023-01-19T10:47:48.917Z,990.97
2023-01-19T10:48:48.734Z,990.97
2023-01-19T10:49:48.751Z,991.00
2023-01-19T10:50:48.820Z,990.97
2023-01-19T10:51:48.685Z,990.99
2023-01-19T10:52:48.665Z,991.02
2023-01-19T10:53:48.682Z,991.03
2023-01-19T10:54:48.649Z,991.03
2023-01-19T10:55:48.636Z,991.04
2023-01-19T10:56:48.812Z,991.04
2023-01-19T10:57:48.655Z,991.02
2023-01-19T10:58:48.595Z,991.04
2023-01-19T10:59:48.616Z,991.02
2023-01-19T11:00:48.739Z,991.04
2023-01-19T11:01:48.795Z,991.04
2023-01-19T11:02:48.942Z,991.02
2023-01-19T11:03:48.602Z,991.03
2023-01-19T11:04:50.064Z,991.03
2023-01-19T11:05:48.515Z,991.03
2023-01-19T11:06:48.493Z,991.02
2023-01-19T11:07:48.511Z,991.03
2023-01-19T11:08:48.702Z,991.02
2023-01-19T11:09:48.471Z,991.00
2023-01-19T11:10:49.327Z,991.00
2023-01-19T11:11:48.454Z,990.99
2023-01-19T11:12:48.442Z,990.98
2023-01-19T11:13:48.441Z,990.97
2023-01-19T11:14:48.750Z,990.96
2023-01-19T11:15:48.416Z,990.93
2023-01-19T11:16:48.442Z,990.92
2023-01-19T11:17:48.450Z,990.92
2023-01-19T11:18:48.371Z,990.94
2023-01-19T11:19:48.379Z,990.91
2023-01-19T11:20:48.513Z,990.91
2023-01-19T11:21:48.351Z,990.92
2023-01-19T11:22:49.011Z,990.90
2023-01-19T11:23:48.382Z,990.90
2023-01-19T11:24:48.312Z,990.89
2023-01-19T11:25:48.339Z,990.84
2023-01-19T11:28:00.214Z,990.88
2023-01-19T11:29:01.069Z,990.91
2023-01-19T11:30:01.053Z,990.85
2023-01-19T11:31:01.057Z,990.86
2023-01-19T11:32:01.063Z,990.89
2023-01-19T11:33:01.654Z,990.90
2023-01-19T11:34:01.020Z,990.92
2023-01-19T11:35:01.049Z,990.93
2023-01-19T11:36:00.999Z,990.96
2023-01-19T11:37:00.986Z,990.95
2023-01-19T11:38:01.192Z,990.97
2023-01-19T11:39:01.109Z,990.93
2023-01-19T11:40:00.944Z,990.95
2023-01-19T11:41:00.944Z,990.98
2023-01-19T11:42:00.915Z,990.98
2023-01-19T11:43:01.137Z,990.97
2023-01-19T11:44:00.896Z,991.01
2023-01-19T11:45:01.064Z,990.94
2023-01-19T11:46:00.955Z,990.92
2023-01-19T11:47:00.967Z,990.95
2023-01-19T11:48:01.264Z,990.92
2023-01-19T11:49:00.853Z,990.92
2023-01-19T11:50:00.854Z,990.94
2023-01-19T11:51:01.012Z,990.95
2023-01-19T11:52:00.820Z,990.91
2023-01-19T11:53:00.819Z,990.93
2023-01-19T11:54:00.794Z,990.88
2023-01-19T11:55:00.797Z,990.93
2023-01-19T11:56:00.785Z,990.94
2023-01-19T11:57:00.901Z,990.93
2023-01-19T11:58:01.040Z,990.94
2023-01-19T11:59:00.747Z,990.92
2023-01-19T12:00:00.792Z,990.91
2023-01-19T12:01:00.867Z,990.90
2023-01-19T12:02:00.822Z,990.91
2023-01-19T12:03:00.955Z,990.90
2023-01-19T12:04:00.690Z,990.97
2023-01-19T12:05:00.683Z,990.91
2023-01-19T12:06:00.672Z,990.90
2023-01-19T12:07:00.667Z,990.93
2023-01-19T12:08:01.113Z,990.90
2023-01-19T12:09:00.829Z,990.91
2023-01-19T12:10:00.630Z,990.90
2023-01-19T12:11:00.635Z,990.92
2023-01-19T12:12:00.606Z,990.94
2023-01-19T12:13:00.607Z,990.92
2023-01-19T12:14:00.643Z,990.93
2023-01-19T12:15:00.901Z,990.92
2023-01-19T12:16:00.629Z,990.93
2023-01-19T12:17:00.576Z,990.91
2023-01-19T12:18:00.989Z,990.91
2023-01-19T12:19:00.557Z,990.90
2023-01-19T12:20:00.527Z,990.91
2023-01-19T12:21:03.705Z,990.88
2023-01-19T12:22:00.505Z,990.87
2023-01-19T12:23:00.516Z,990.84
2023-01-19T12:24:00.567Z,990.88
2023-01-19T12:25:00.493Z,990.86
2023-01-19T12:26:00.476Z,990.87
2023-01-19T12:27:07.582Z,990.84
2023-01-19T12:28:00.523Z,990.86
2023-01-19T12:29:00.445Z,990.86
2023-01-19T12:30:00.426Z,990.87
2023-01-19T12:31:00.502Z,990.89
2023-01-19T12:32:00.550Z,990.87